sensor_id;sensor_type;location;lat;lon;timestamp;temperature;humidity
70246;SHT30;57637;49.272;8.590;2023-04-25T00:01:20;8.75;87.42
70246;SHT30;57637;49.272;8.590;2023-04-25T00:03:46;8.76;87.42
70246;SHT30;57637;49.272;8.590;2023-04-25T00:06:12;8.73;87.29
70246;SHT30;57637;49.272;8.590;2023-04-25T00:08:37;8.75;87.31
70246;SHT30;57637;49.272;8.590;2023-04-25T00:11:03;8.75;87.30
70246;SHT30;57637;49.272;8.590;2023-04-25T00:13:29;8.67;87.20
70246;SHT30;57637;49.272;8.590;2023-04-25T00:15:54;8.69;87.24
70246;SHT30;57637;49.272;8.590;2023-04-25T00:18:21;8.66;87.26
70246;SHT30;57637;49.272;8.590;2023-04-25T00:20:47;8.66;87.26
70246;SHT30;57637;49.272;8.590;2023-04-25T00:23:13;8.66;87.25
70246;SHT30;57637;49.272;8.590;2023-04-25T00:25:46;8.63;87.17
70246;SHT30;57637;49.272;8.590;2023-04-25T00:28:13;8.66;87.16
70246;SHT30;57637;49.272;8.590;2023-04-25T00:30:39;8.62;87.28
70246;SHT30;57637;49.272;8.590;2023-04-25T00:33:05;8.62;87.25
70246;SHT30;57637;49.272;8.590;2023-04-25T00:35:30;8.60;87.19
70246;SHT30;57637;49.272;8.590;2023-04-25T00:37:56;8.57;87.18
70246;SHT30;57637;49.272;8.590;2023-04-25T00:40:21;8.59;87.29
70246;SHT30;57637;49.272;8.590;2023-04-25T00:42:47;8.55;87.28
70246;SHT30;57637;49.272;8.590;2023-04-25T00:45:13;8.49;87.34
70246;SHT30;57637;49.272;8.590;2023-04-25T00:47:40;8.50;87.47
70246;SHT30;57637;49.272;8.590;2023-04-25T00:50:07;8.49;87.44
70246;SHT30;57637;49.272;8.590;2023-04-25T00:52:33;8.44;87.41
70246;SHT30;57637;49.272;8.590;2023-04-25T00:54:59;8.44;87.51
70246;SHT30;57637;49.272;8.590;2023-04-25T00:57:28;8.46;87.53
70246;SHT30;57637;49.272;8.590;2023-04-25T00:59:53;8.44;87.51
70246;SHT30;57637;49.272;8.590;2023-04-25T01:02:19;8.44;87.53
70246;SHT30;57637;49.272;8.590;2023-04-25T01:04:45;8.42;87.68
70246;SHT30;57637;49.272;8.590;2023-04-25T01:07:12;8.39;87.78
70246;SHT30;57637;49.272;8.590;2023-04-25T01:09:38;8.38;87.65
70246;SHT30;57637;49.272;8.590;2023-04-25T01:12:03;8.34;87.73
70246;SHT30;57637;49.272;8.590;2023-04-25T01:14:29;8.35;87.80
70246;SHT30;57637;49.272;8.590;2023-04-25T01:16:55;8.35;87.63
70246;SHT30;57637;49.272;8.590;2023-04-25T01:19:20;8.34;87.65
70246;SHT30;57637;49.272;8.590;2023-04-25T01:21:46;8.32;87.75
70246;SHT30;57637;49.272;8.590;2023-04-25T01:24:12;8.31;87.86
70246;SHT30;57637;49.272;8.590;2023-04-25T01:26:38;8.32;87.81
70246;SHT30;57637;49.272;8.590;2023-04-25T01:29:05;8.26;87.81
70246;SHT30;57637;49.272;8.590;2023-04-25T01:31:32;8.26;87.91
70246;SHT30;57637;49.272;8.590;2023-04-25T01:33:59;8.29;87.89
70246;SHT30;57637;49.272;8.590;2023-04-25T01:36:25;8.25;87.90
70246;SHT30;57637;49.272;8.590;2023-04-25T01:38:52;8.28;87.84
70246;SHT30;57637;49.272;8.590;2023-04-25T01:41:17;8.22;87.69
70246;SHT30;57637;49.272;8.590;2023-04-25T01:43:44;8.18;87.95
70246;SHT30;57637;49.272;8.590;2023-04-25T01:46:10;8.20;88.03
70246;SHT30;57637;49.272;8.590;2023-04-25T01:48:39;8.12;88.05
70246;SHT30;57637;49.272;8.590;2023-04-25T01:51:04;8.12;88.21
70246;SHT30;57637;49.272;8.590;2023-04-25T01:53:29;8.15;88.33
70246;SHT30;57637;49.272;8.590;2023-04-25T01:55:55;8.18;88.27
70246;SHT30;57637;49.272;8.590;2023-04-25T01:58:20;8.20;88.38
70246;SHT30;57637;49.272;8.590;2023-04-25T02:00:48;8.18;88.33
70246;SHT30;57637;49.272;8.590;2023-04-25T02:03:13;8.22;88.38
70246;SHT30;57637;49.272;8.590;2023-04-25T02:05:39;8.25;88.37
70246;SHT30;57637;49.272;8.590;2023-04-25T02:08:05;8.21;88.38
70246;SHT30;57637;49.272;8.590;2023-04-25T02:10:32;8.21;88.36
70246;SHT30;57637;49.272;8.590;2023-04-25T02:12:58;8.18;88.45
70246;SHT30;57637;49.272;8.590;2023-04-25T02:15:24;8.20;88.48
70246;SHT30;57637;49.272;8.590;2023-04-25T02:17:49;8.20;88.53
70246;SHT30;57637;49.272;8.590;2023-04-25T02:20:20;8.20;88.61
70246;SHT30;57637;49.272;8.590;2023-04-25T02:22:46;8.22;88.49
70246;SHT30;57637;49.272;8.590;2023-04-25T02:25:12;8.24;88.53
70246;SHT30;57637;49.272;8.590;2023-04-25T02:27:38;8.20;88.46
70246;SHT30;57637;49.272;8.590;2023-04-25T02:30:04;8.21;88.45
70246;SHT30;57637;49.272;8.590;2023-04-25T02:32:30;8.20;88.46
70246;SHT30;57637;49.272;8.590;2023-04-25T02:34:55;8.15;88.59
70246;SHT30;57637;49.272;8.590;2023-04-25T02:37:23;8.16;88.62
70246;SHT30;57637;49.272;8.590;2023-04-25T02:39:49;8.12;88.64
70246;SHT30;57637;49.272;8.590;2023-04-25T02:42:14;8.15;88.69
70246;SHT30;57637;49.272;8.590;2023-04-25T02:44:40;8.15;88.72
70246;SHT30;57637;49.272;8.590;2023-04-25T02:47:05;8.14;88.65
70246;SHT30;57637;49.272;8.590;2023-04-25T02:49:31;8.15;88.68
70246;SHT30;57637;49.272;8.590;2023-04-25T02:51:56;8.12;88.70
70246;SHT30;57637;49.272;8.590;2023-04-25T02:54:21;8.11;88.73
70246;SHT30;57637;49.272;8.590;2023-04-25T02:56:47;8.09;88.85
70246;SHT30;57637;49.272;8.590;2023-04-25T02:59:12;8.11;88.87
70246;SHT30;57637;49.272;8.590;2023-04-25T03:01:38;8.08;88.93
70246;SHT30;57637;49.272;8.590;2023-04-25T03:04:03;8.09;89.07
70246;SHT30;57637;49.272;8.590;2023-04-25T03:06:28;8.04;89.16
70246;SHT30;57637;49.272;8.590;2023-04-25T03:08:54;8.04;89.25
70246;SHT30;57637;49.272;8.590;2023-04-25T03:11:19;8.02;89.36
70246;SHT30;57637;49.272;8.590;2023-04-25T03:13:45;8.02;89.39
70246;SHT30;57637;49.272;8.590;2023-04-25T03:16:10;8.02;89.42
70246;SHT30;57637;49.272;8.590;2023-04-25T03:18:36;8.05;89.31
70246;SHT30;57637;49.272;8.590;2023-04-25T03:21:01;8.05;89.26
70246;SHT30;57637;49.272;8.590;2023-04-25T03:23:27;8.06;89.29
70246;SHT30;57637;49.272;8.590;2023-04-25T03:25:52;8.08;89.21
70246;SHT30;57637;49.272;8.590;2023-04-25T03:28:18;8.05;89.12
70246;SHT30;57637;49.272;8.590;2023-04-25T03:30:43;8.08;89.21
70246;SHT30;57637;49.272;8.590;2023-04-25T03:33:08;8.05;89.23
70246;SHT30;57637;49.272;8.590;2023-04-25T03:35:34;8.01;89.27
70246;SHT30;57637;49.272;8.590;2023-04-25T03:37:59;8.02;89.52
70246;SHT30;57637;49.272;8.590;2023-04-25T03:40:25;8.02;89.77
70246;SHT30;57637;49.272;8.590;2023-04-25T03:42:52;7.94;89.78
70246;SHT30;57637;49.272;8.590;2023-04-25T03:45:18;7.97;89.82
70246;SHT30;57637;49.272;8.590;2023-04-25T03:47:43;7.95;89.85
70246;SHT30;57637;49.272;8.590;2023-04-25T03:50:09;7.93;89.81
70246;SHT30;57637;49.272;8.590;2023-04-25T03:52:35;7.94;89.79
70246;SHT30;57637;49.272;8.590;2023-04-25T03:55:00;7.90;89.77
70246;SHT30;57637;49.272;8.590;2023-04-25T03:57:25;7.93;89.92
70246;SHT30;57637;49.272;8.590;2023-04-25T03:59:51;7.95;89.97
70246;SHT30;57637;49.272;8.590;2023-04-25T04:02:17;7.91;89.83
70246;SHT30;57637;49.272;8.590;2023-04-25T04:04:43;7.91;90.02
70246;SHT30;57637;49.272;8.590;2023-04-25T04:07:09;7.91;90.08
70246;SHT30;57637;49.272;8.590;2023-04-25T04:09:35;7.90;90.03
70246;SHT30;57637;49.272;8.590;2023-04-25T04:12:00;7.90;90.07
70246;SHT30;57637;49.272;8.590;2023-04-25T04:14:26;7.93;90.14
70246;SHT30;57637;49.272;8.590;2023-04-25T04:16:52;7.88;90.03
70246;SHT30;57637;49.272;8.590;2023-04-25T04:19:17;7.91;90.10
70246;SHT30;57637;49.272;8.590;2023-04-25T04:21:43;7.94;90.08
70246;SHT30;57637;49.272;8.590;2023-04-25T04:24:08;7.95;90.08
70246;SHT30;57637;49.272;8.590;2023-04-25T04:26:35;7.98;90.04
70246;SHT30;57637;49.272;8.590;2023-04-25T04:29:02;7.99;90.01
70246;SHT30;57637;49.272;8.590;2023-04-25T04:31:27;7.97;90.07
70246;SHT30;57637;49.272;8.590;2023-04-25T04:33:55;7.99;90.29
70246;SHT30;57637;49.272;8.590;2023-04-25T04:36:20;7.99;90.24
70246;SHT30;57637;49.272;8.590;2023-04-25T04:38:47;7.97;90.10
70246;SHT30;57637;49.272;8.590;2023-04-25T04:41:12;7.93;90.14
70246;SHT30;57637;49.272;8.590;2023-04-25T04:43:38;7.97;90.13
70246;SHT30;57637;49.272;8.590;2023-04-25T04:46:04;7.95;90.04
70246;SHT30;57637;49.272;8.590;2023-04-25T04:48:33;7.97;90.10
70246;SHT30;57637;49.272;8.590;2023-04-25T04:50:59;8.02;90.08
70246;SHT30;57637;49.272;8.590;2023-04-25T04:53:25;8.02;90.14
70246;SHT30;57637;49.272;8.590;2023-04-25T04:55:50;8.08;90.06
70246;SHT30;57637;49.272;8.590;2023-04-25T04:58:16;8.11;90.01
70246;SHT30;57637;49.272;8.590;2023-04-25T05:00:41;8.09;89.89
70246;SHT30;57637;49.272;8.590;2023-04-25T05:03:07;8.15;89.95
70246;SHT30;57637;49.272;8.590;2023-04-25T05:05:32;8.21;89.88
70246;SHT30;57637;49.272;8.590;2023-04-25T05:07:57;8.25;89.92
70246;SHT30;57637;49.272;8.590;2023-04-25T05:10:23;8.12;89.63
70246;SHT30;57637;49.272;8.590;2023-04-25T05:12:48;8.08;89.65
70246;SHT30;57637;49.272;8.590;2023-04-25T05:15:13;8.09;89.73
70246;SHT30;57637;49.272;8.590;2023-04-25T05:17:39;8.16;89.73
70246;SHT30;57637;49.272;8.590;2023-04-25T05:20:05;8.14;89.64
70246;SHT30;57637;49.272;8.590;2023-04-25T05:22:32;8.11;89.38
70246;SHT30;57637;49.272;8.590;2023-04-25T05:24:57;8.20;89.43
70246;SHT30;57637;49.272;8.590;2023-04-25T05:27:23;8.18;89.28
70246;SHT30;57637;49.272;8.590;2023-04-25T05:29:49;8.25;89.50
70246;SHT30;57637;49.272;8.590;2023-04-25T05:32:14;8.41;89.52
70246;SHT30;57637;49.272;8.590;2023-04-25T05:34:39;8.56;89.42
70246;SHT30;57637;49.272;8.590;2023-04-25T05:37:06;8.66;89.22
70246;SHT30;57637;49.272;8.590;2023-04-25T05:39:32;8.77;89.11
70246;SHT30;57637;49.272;8.590;2023-04-25T05:41:57;8.83;88.84
70246;SHT30;57637;49.272;8.590;2023-04-25T05:44:23;8.94;88.67
70246;SHT30;57637;49.272;8.590;2023-04-25T05:46:48;9.13;88.73
70246;SHT30;57637;49.272;8.590;2023-04-25T05:49:14;9.16;88.43
70246;SHT30;57637;49.272;8.590;2023-04-25T05:51:39;9.20;88.43
70246;SHT30;57637;49.272;8.590;2023-04-25T05:54:05;9.28;88.26
70246;SHT30;57637;49.272;8.590;2023-04-25T05:56:30;9.30;88.21
70246;SHT30;57637;49.272;8.590;2023-04-25T05:58:55;9.30;88.02
70246;SHT30;57637;49.272;8.590;2023-04-25T06:01:22;9.30;88.01
70246;SHT30;57637;49.272;8.590;2023-04-25T06:03:47;9.23;88.17
70246;SHT30;57637;49.272;8.590;2023-04-25T06:06:13;9.26;88.17
70246;SHT30;57637;49.272;8.590;2023-04-25T06:08:39;9.42;88.36
70246;SHT30;57637;49.272;8.590;2023-04-25T06:11:05;9.42;88.17
70246;SHT30;57637;49.272;8.590;2023-04-25T06:13:31;9.47;88.10
70246;SHT30;57637;49.272;8.590;2023-04-25T06:15:56;9.42;87.67
70246;SHT30;57637;49.272;8.590;2023-04-25T06:18:22;9.24;87.71
70246;SHT30;57637;49.272;8.590;2023-04-25T06:20:47;9.13;88.02
70246;SHT30;57637;49.272;8.590;2023-04-25T06:23:12;9.01;88.10
70246;SHT30;57637;49.272;8.590;2023-04-25T06:25:38;9.01;88.36
70246;SHT30;57637;49.272;8.590;2023-04-25T06:28:03;8.94;88.50
70246;SHT30;57637;49.272;8.590;2023-04-25T06:30:29;8.97;88.94
70246;SHT30;57637;49.272;8.590;2023-04-25T06:32:54;8.91;88.72
70246;SHT30;57637;49.272;8.590;2023-04-25T06:35:20;8.84;88.44
70246;SHT30;57637;49.272;8.590;2023-04-25T06:37:46;8.93;88.57
70246;SHT30;57637;49.272;8.590;2023-04-25T06:40:11;9.03;88.88
70246;SHT30;57637;49.272;8.590;2023-04-25T06:42:37;9.03;88.86
70246;SHT30;57637;49.272;8.590;2023-04-25T06:45:02;9.10;88.76
70246;SHT30;57637;49.272;8.590;2023-04-25T06:47:28;9.14;88.39
70246;SHT30;57637;49.272;8.590;2023-04-25T06:49:54;9.32;88.40
70246;SHT30;57637;49.272;8.590;2023-04-25T06:52:20;9.48;88.27
70246;SHT30;57637;49.272;8.590;2023-04-25T06:54:45;9.41;87.98
70246;SHT30;57637;49.272;8.590;2023-04-25T06:57:11;9.51;88.18
70246;SHT30;57637;49.272;8.590;2023-04-25T06:59:36;9.30;87.50
70246;SHT30;57637;49.272;8.590;2023-04-25T07:02:02;9.40;88.05
70246;SHT30;57637;49.272;8.590;2023-04-25T07:04:28;9.45;87.70
70246;SHT30;57637;49.272;8.590;2023-04-25T07:06:54;9.16;86.95
70246;SHT30;57637;49.272;8.590;2023-04-25T07:09:20;9.23;86.71
70246;SHT30;57637;49.272;8.590;2023-04-25T07:11:45;9.30;86.86
70246;SHT30;57637;49.272;8.590;2023-04-25T07:14:11;9.37;86.91
70246;SHT30;57637;49.272;8.590;2023-04-25T07:16:36;9.45;86.97
70246;SHT30;57637;49.272;8.590;2023-04-25T07:19:01;9.44;86.61
70246;SHT30;57637;49.272;8.590;2023-04-25T07:21:27;9.54;86.72
70246;SHT30;57637;49.272;8.590;2023-04-25T07:23:52;9.54;86.37
70246;SHT30;57637;49.272;8.590;2023-04-25T07:26:18;9.52;86.18
70246;SHT30;57637;49.272;8.590;2023-04-25T07:28:43;9.41;85.78
70246;SHT30;57637;49.272;8.590;2023-04-25T07:31:08;9.55;86.15
70246;SHT30;57637;49.272;8.590;2023-04-25T07:33:34;9.68;86.64
70246;SHT30;57637;49.272;8.590;2023-04-25T07:36:00;9.44;86.63
70246;SHT30;57637;49.272;8.590;2023-04-25T07:38:25;9.37;86.88
70246;SHT30;57637;49.272;8.590;2023-04-25T07:40:51;9.06;87.47
70246;SHT30;57637;49.272;8.590;2023-04-25T07:43:16;8.46;87.99
70246;SHT30;57637;49.272;8.590;2023-04-25T07:45:45;8.36;88.80
70246;SHT30;57637;49.272;8.590;2023-04-25T07:48:11;8.42;89.04
70246;SHT30;57637;49.272;8.590;2023-04-25T07:50:56;8.29;89.31
70246;SHT30;57637;49.272;8.590;2023-04-25T07:53:21;8.31;88.98
70246;SHT30;57637;49.272;8.590;2023-04-25T07:55:47;8.25;88.73
70246;SHT30;57637;49.272;8.590;2023-04-25T07:58:12;8.20;88.45
70246;SHT30;57637;49.272;8.590;2023-04-25T08:00:37;8.05;87.91
70246;SHT30;57637;49.272;8.590;2023-04-25T08:03:03;8.01;87.40
70246;SHT30;57637;49.272;8.590;2023-04-25T08:05:28;7.97;86.50
70246;SHT30;57637;49.272;8.590;2023-04-25T08:07:54;8.15;86.85
70246;SHT30;57637;49.272;8.590;2023-04-25T08:10:21;8.25;86.82
70246;SHT30;57637;49.272;8.590;2023-04-25T08:12:48;8.39;87.15
70246;SHT30;57637;49.272;8.590;2023-04-25T08:15:13;8.45;86.56
70246;SHT30;57637;49.272;8.590;2023-04-25T08:17:39;8.62;86.01
70246;SHT30;57637;49.272;8.590;2023-04-25T08:20:04;8.56;85.83
70246;SHT30;57637;49.272;8.590;2023-04-25T08:22:30;8.48;85.56
70246;SHT30;57637;49.272;8.590;2023-04-25T08:24:56;8.70;86.32
70246;SHT30;57637;49.272;8.590;2023-04-25T08:27:22;8.72;86.03
70246;SHT30;57637;49.272;8.590;2023-04-25T08:29:47;8.86;86.52
70246;SHT30;57637;49.272;8.590;2023-04-25T08:32:12;9.04;85.83
70246;SHT30;57637;49.272;8.590;2023-04-25T08:34:38;9.04;85.29
70246;SHT30;57637;49.272;8.590;2023-04-25T08:37:07;8.69;80.21
70246;SHT30;57637;49.272;8.590;2023-04-25T08:39:33;8.83;81.21
70246;SHT30;57637;49.272;8.590;2023-04-25T08:41:58;8.90;80.28
70246;SHT30;57637;49.272;8.590;2023-04-25T08:44:25;9.08;80.74
70246;SHT30;57637;49.272;8.590;2023-04-25T08:46:52;9.08;80.45
70246;SHT30;57637;49.272;8.590;2023-04-25T08:49:17;9.04;80.30
70246;SHT30;57637;49.272;8.590;2023-04-25T08:51:44;9.26;79.99
70246;SHT30;57637;49.272;8.590;2023-04-25T08:54:12;9.54;79.64
70246;SHT30;57637;49.272;8.590;2023-04-25T08:56:39;9.81;79.09
70246;SHT30;57637;49.272;8.590;2023-04-25T08:59:06;10.05;79.11
70246;SHT30;57637;49.272;8.590;2023-04-25T09:01:33;10.32;77.24
70246;SHT30;57637;49.272;8.590;2023-04-25T09:04:00;10.64;77.10
70246;SHT30;57637;49.272;8.590;2023-04-25T09:06:25;10.36;74.40
70246;SHT30;57637;49.272;8.590;2023-04-25T09:08:52;10.01;73.47
70246;SHT30;57637;49.272;8.590;2023-04-25T09:11:18;9.86;75.43
70246;SHT30;57637;49.272;8.590;2023-04-25T09:13:44;10.03;75.98
70246;SHT30;57637;49.272;8.590;2023-04-25T09:16:10;10.08;75.27
70246;SHT30;57637;49.272;8.590;2023-04-25T09:18:36;9.88;74.99
70246;SHT30;57637;49.272;8.590;2023-04-25T09:21:07;9.68;74.29
70246;SHT30;57637;49.272;8.590;2023-04-25T09:23:43;9.88;75.86
70246;SHT30;57637;49.272;8.590;2023-04-25T09:26:10;10.09;76.08
70246;SHT30;57637;49.272;8.590;2023-04-25T09:28:39;10.28;75.90
70246;SHT30;57637;49.272;8.590;2023-04-25T09:31:04;10.36;75.35
70246;SHT30;57637;49.272;8.590;2023-04-25T09:33:33;10.19;75.43
70246;SHT30;57637;49.272;8.590;2023-04-25T09:36:05;10.09;75.61
70246;SHT30;57637;49.272;8.590;2023-04-25T09:38:39;10.40;74.53
70246;SHT30;57637;49.272;8.590;2023-04-25T09:41:07;10.42;74.15
70246;SHT30;57637;49.272;8.590;2023-04-25T09:43:33;10.57;73.91
70246;SHT30;57637;49.272;8.590;2023-04-25T09:45:58;10.74;74.83
70246;SHT30;57637;49.272;8.590;2023-04-25T09:48:25;11.05;73.93
70246;SHT30;57637;49.272;8.590;2023-04-25T09:51:07;11.03;72.71
70246;SHT30;57637;49.272;8.590;2023-04-25T09:53:39;11.01;72.01
70246;SHT30;57637;49.272;8.590;2023-04-25T09:56:07;11.18;71.78
70246;SHT30;57637;49.272;8.590;2023-04-25T09:58:35;11.58;71.54
70246;SHT30;57637;49.272;8.590;2023-04-25T10:01:03;11.52;70.27
70246;SHT30;57637;49.272;8.590;2023-04-25T10:03:33;11.43;70.21
70246;SHT30;57637;49.272;8.590;2023-04-25T10:06:00;11.70;69.43
70246;SHT30;57637;49.272;8.590;2023-04-25T10:08:35;11.76;68.22
70246;SHT30;57637;49.272;8.590;2023-04-25T10:11:02;11.80;68.36
70246;SHT30;57637;49.272;8.590;2023-04-25T10:13:29;11.55;66.73
70246;SHT30;57637;49.272;8.590;2023-04-25T10:15:59;11.59;67.13
70246;SHT30;57637;49.272;8.590;2023-04-25T10:18:26;11.80;67.91
70246;SHT30;57637;49.272;8.590;2023-04-25T10:20:56;11.65;67.93
70246;SHT30;57637;49.272;8.590;2023-04-25T10:23:24;11.93;68.41
70246;SHT30;57637;49.272;8.590;2023-04-25T10:25:50;11.83;70.17
70246;SHT30;57637;49.272;8.590;2023-04-25T10:28:17;11.77;69.29
70246;SHT30;57637;49.272;8.590;2023-04-25T10:33:38;11.28;70.03
70246;SHT30;57637;49.272;8.590;2023-04-25T10:36:24;11.22;69.91
70246;SHT30;57637;49.272;8.590;2023-04-25T10:38:52;11.14;70.81
70246;SHT30;57637;49.272;8.590;2023-04-25T10:41:20;11.18;71.23
70246;SHT30;57637;49.272;8.590;2023-04-25T10:43:48;11.16;70.91
70246;SHT30;57637;49.272;8.590;2023-04-25T10:46:19;11.12;71.03
70246;SHT30;57637;49.272;8.590;2023-04-25T10:49:00;11.14;69.13
70246;SHT30;57637;49.272;8.590;2023-04-25T10:51:33;11.00;68.02
70246;SHT30;57637;49.272;8.590;2023-04-25T10:56:38;11.24;68.36
70246;SHT30;57637;49.272;8.590;2023-04-25T11:01:44;11.49;69.04
70246;SHT30;57637;49.272;8.590;2023-04-25T11:10:01;11.51;65.24
70246;SHT30;57637;49.272;8.590;2023-04-25T11:12:29;11.51;65.24
70246;SHT30;57637;49.272;8.590;2023-04-25T11:15:03;11.58;63.84
70246;SHT30;57637;49.272;8.590;2023-04-25T11:17:30;11.54;63.43
70246;SHT30;57637;49.272;8.590;2023-04-25T11:19:56;11.66;63.60
70246;SHT30;57637;49.272;8.590;2023-04-25T11:22:22;12.03;64.65
70246;SHT30;57637;49.272;8.590;2023-04-25T11:24:47;12.13;63.63
70246;SHT30;57637;49.272;8.590;2023-04-25T11:27:13;12.16;64.46
70246;SHT30;57637;49.272;8.590;2023-04-25T11:29:39;12.13;63.65
70246;SHT30;57637;49.272;8.590;2023-04-25T11:32:06;12.51;66.35
70246;SHT30;57637;49.272;8.590;2023-04-25T11:34:31;12.04;68.00
70246;SHT30;57637;49.272;8.590;2023-04-25T11:36:58;12.01;68.57
70246;SHT30;57637;49.272;8.590;2023-04-25T11:39:25;12.69;71.25
70246;SHT30;57637;49.272;8.590;2023-04-25T11:41:52;12.71;69.62
70246;SHT30;57637;49.272;8.590;2023-04-25T11:44:18;12.91;71.01
70246;SHT30;57637;49.272;8.590;2023-04-25T11:46:44;13.16;68.01
70246;SHT30;57637;49.272;8.590;2023-04-25T11:49:10;13.33;68.17
70246;SHT30;57637;49.272;8.590;2023-04-25T11:51:43;12.81;66.49
70246;SHT30;57637;49.272;8.590;2023-04-25T11:54:10;12.67;66.07
70246;SHT30;57637;49.272;8.590;2023-04-25T11:56:36;13.35;67.66
70246;SHT30;57637;49.272;8.590;2023-04-25T11:59:03;13.70;63.77
70246;SHT30;57637;49.272;8.590;2023-04-25T12:01:30;13.90;64.28
70246;SHT30;57637;49.272;8.590;2023-04-25T12:03:57;13.83;64.83
70246;SHT30;57637;49.272;8.590;2023-04-25T12:06:27;13.46;61.79
70246;SHT30;57637;49.272;8.590;2023-04-25T12:09:03;12.64;63.74
70246;SHT30;57637;49.272;8.590;2023-04-25T12:11:30;12.78;65.48
70246;SHT30;57637;49.272;8.590;2023-04-25T12:14:01;12.24;63.81
70246;SHT30;57637;49.272;8.590;2023-04-25T12:16:42;11.76;63.71
70246;SHT30;57637;49.272;8.590;2023-04-25T12:19:14;11.77;65.18
70246;SHT30;57637;49.272;8.590;2023-04-25T12:21:41;11.67;66.04
70246;SHT30;57637;49.272;8.590;2023-04-25T12:24:14;11.56;65.39
70246;SHT30;57637;49.272;8.590;2023-04-25T12:29:22;11.90;66.01
70246;SHT30;57637;49.272;8.590;2023-04-25T12:31:50;11.90;64.66
70246;SHT30;57637;49.272;8.590;2023-04-25T12:34:20;12.12;65.33
70246;SHT30;57637;49.272;8.590;2023-04-25T12:36:47;12.03;65.17
70246;SHT30;57637;49.272;8.590;2023-04-25T12:39:22;12.28;64.32
70246;SHT30;57637;49.272;8.590;2023-04-25T12:41:49;12.50;64.20
70246;SHT30;57637;49.272;8.590;2023-04-25T12:44:15;12.54;64.89
70246;SHT30;57637;49.272;8.590;2023-04-25T12:46:41;11.93;63.46
70246;SHT30;57637;49.272;8.590;2023-04-25T12:49:07;12.38;65.13
70246;SHT30;57637;49.272;8.590;2023-04-25T12:51:33;12.23;62.98
70246;SHT30;57637;49.272;8.590;2023-04-25T12:54:00;12.26;65.29
70246;SHT30;57637;49.272;8.590;2023-04-25T12:56:26;12.42;64.91
70246;SHT30;57637;49.272;8.590;2023-04-25T12:58:52;12.61;63.08
70246;SHT30;57637;49.272;8.590;2023-04-25T13:01:18;12.72;62.23
70246;SHT30;57637;49.272;8.590;2023-04-25T13:03:44;13.13;62.63
70246;SHT30;57637;49.272;8.590;2023-04-25T13:06:09;12.95;61.76
70246;SHT30;57637;49.272;8.590;2023-04-25T13:08:35;12.40;63.18
70246;SHT30;57637;49.272;8.590;2023-04-25T13:11:02;12.44;62.51
70246;SHT30;57637;49.272;8.590;2023-04-25T13:13:28;12.37;64.14
70246;SHT30;57637;49.272;8.590;2023-04-25T13:15:56;12.61;62.80
70246;SHT30;57637;49.272;8.590;2023-04-25T13:18:22;12.34;63.40
70246;SHT30;57637;49.272;8.590;2023-04-25T13:20:52;12.51;61.79
70246;SHT30;57637;49.272;8.590;2023-04-25T13:23:19;12.38;61.67
70246;SHT30;57637;49.272;8.590;2023-04-25T13:25:45;12.75;61.41
70246;SHT30;57637;49.272;8.590;2023-04-25T13:28:12;12.74;61.61
70246;SHT30;57637;49.272;8.590;2023-04-25T13:30:37;12.62;61.41
70246;SHT30;57637;49.272;8.590;2023-04-25T13:33:03;12.57;61.37
70246;SHT30;57637;49.272;8.590;2023-04-25T13:35:29;12.38;59.79
70246;SHT30;57637;49.272;8.590;2023-04-25T13:37:55;12.80;59.90
70246;SHT30;57637;49.272;8.590;2023-04-25T13:40:21;12.75;59.59
70246;SHT30;57637;49.272;8.590;2023-04-25T13:42:47;13.12;59.93
70246;SHT30;57637;49.272;8.590;2023-04-25T13:45:12;12.92;59.20
70246;SHT30;57637;49.272;8.590;2023-04-25T13:47:37;12.68;58.92
70246;SHT30;57637;49.272;8.590;2023-04-25T13:50:03;12.75;58.76
70246;SHT30;57637;49.272;8.590;2023-04-25T13:52:30;12.91;58.84
70246;SHT30;57637;49.272;8.590;2023-04-25T13:54:56;12.81;59.42
70246;SHT30;57637;49.272;8.590;2023-04-25T13:57:23;12.57;59.34
70246;SHT30;57637;49.272;8.590;2023-04-25T13:59:48;12.82;57.83
70246;SHT30;57637;49.272;8.590;2023-04-25T14:02:13;13.18;57.65
70246;SHT30;57637;49.272;8.590;2023-04-25T14:04:40;13.36;56.41
70246;SHT30;57637;49.272;8.590;2023-04-25T14:07:05;13.27;58.15
70246;SHT30;57637;49.272;8.590;2023-04-25T14:09:37;13.08;59.09
70246;SHT30;57637;49.272;8.590;2023-04-25T14:12:03;12.67;58.24
70246;SHT30;57637;49.272;8.590;2023-04-25T14:14:31;12.45;59.49
70246;SHT30;57637;49.272;8.590;2023-04-25T14:16:58;12.41;59.65
70246;SHT30;57637;49.272;8.590;2023-04-25T14:19:28;12.58;60.86
70246;SHT30;57637;49.272;8.590;2023-04-25T14:21:54;12.58;60.90
70246;SHT30;57637;49.272;8.590;2023-04-25T14:24:19;12.28;60.66
70246;SHT30;57637;49.272;8.590;2023-04-25T14:26:45;12.62;60.30
70246;SHT30;57637;49.272;8.590;2023-04-25T14:29:11;12.82;59.49
70246;SHT30;57637;49.272;8.590;2023-04-25T14:31:37;12.75;61.39
70246;SHT30;57637;49.272;8.590;2023-04-25T14:34:03;12.60;60.93
70246;SHT30;57637;49.272;8.590;2023-04-25T14:36:29;12.28;62.61
70246;SHT30;57637;49.272;8.590;2023-04-25T14:38:56;12.14;61.35
70246;SHT30;57637;49.272;8.590;2023-04-25T14:41:21;12.16;62.60
70246;SHT30;57637;49.272;8.590;2023-04-25T14:43:48;11.91;63.45
70246;SHT30;57637;49.272;8.590;2023-04-25T14:46:13;11.70;63.96
70246;SHT30;57637;49.272;8.590;2023-04-25T14:48:39;11.76;62.34
70246;SHT30;57637;49.272;8.590;2023-04-25T14:51:07;11.83;64.74
70246;SHT30;57637;49.272;8.590;2023-04-25T14:53:36;11.45;68.10
70246;SHT30;57637;49.272;8.590;2023-04-25T14:56:01;11.82;68.05
70246;SHT30;57637;49.272;8.590;2023-04-25T14:58:31;11.87;64.76
70246;SHT30;57637;49.272;8.590;2023-04-25T15:00:56;12.01;64.54
70246;SHT30;57637;49.272;8.590;2023-04-25T15:03:22;11.86;63.65
70246;SHT30;57637;49.272;8.590;2023-04-25T15:05:47;12.07;64.65
70246;SHT30;57637;49.272;8.590;2023-04-25T15:08:13;12.16;64.39
70246;SHT30;57637;49.272;8.590;2023-04-25T15:10:38;12.34;64.64
70246;SHT30;57637;49.272;8.590;2023-04-25T15:13:04;12.31;64.34
70246;SHT30;57637;49.272;8.590;2023-04-25T15:15:29;11.96;62.72
70246;SHT30;57637;49.272;8.590;2023-04-25T15:17:55;11.77;62.96
70246;SHT30;57637;49.272;8.590;2023-04-25T15:20:21;11.46;62.15
70246;SHT30;57637;49.272;8.590;2023-04-25T15:22:47;11.61;64.55
70246;SHT30;57637;49.272;8.590;2023-04-25T15:25:20;11.72;65.49
70246;SHT30;57637;49.272;8.590;2023-04-25T15:27:45;11.69;64.83
70246;SHT30;57637;49.272;8.590;2023-04-25T15:30:14;11.75;63.63
70246;SHT30;57637;49.272;8.590;2023-04-25T15:32:42;11.72;63.09
70246;SHT30;57637;49.272;8.590;2023-04-25T15:35:08;11.48;61.68
70246;SHT30;57637;49.272;8.590;2023-04-25T15:37:34;11.49;63.47
70246;SHT30;57637;49.272;8.590;2023-04-25T15:40:02;11.49;63.18
70246;SHT30;57637;49.272;8.590;2023-04-25T15:42:39;11.46;64.14
70246;SHT30;57637;49.272;8.590;2023-04-25T15:45:07;11.34;63.69
70246;SHT30;57637;49.272;8.590;2023-04-25T15:47:35;11.29;62.14
70246;SHT30;57637;49.272;8.590;2023-04-25T15:50:02;11.42;63.54
70246;SHT30;57637;49.272;8.590;2023-04-25T15:52:29;11.54;64.11